sensor_id;sensor_type;location;lat;lon;timestamp;P1;durP1;ratioP1;P2;durP2;ratioP2
60030;SDS011;45901;47.600;9.890;2023-02-02T00:02:14;6.03;;;1.40;;
60030;SDS011;45901;47.600;9.890;2023-02-02T00:04:45;8.73;;;1.50;;
60030;SDS011;45901;47.600;9.890;2023-02-02T00:07:14;5.00;;;1.77;;
60030;SDS011;45901;47.600;9.890;2023-02-02T00:09:42;7.00;;;1.90;;
60030;SDS011;45901;47.600;9.890;2023-02-02T00:12:09;9.53;;;1.70;;
60030;SDS011;45901;47.600;9.890;2023-02-02T00:14:36;5.80;;;1.67;;
60030;SDS011;45901;47.600;9.890;2023-02-02T00:17:10;10.60;;;1.70;;
60030;SDS011;45901;47.600;9.890;2023-02-02T00:19:38;10.03;;;1.70;;
60030;SDS011;45901;47.600;9.890;2023-02-02T00:22:06;2.83;;;1.53;;
60030;SDS011;45901;47.600;9.890;2023-02-02T00:24:34;7.97;;;1.70;;
60030;SDS011;45901;47.600;9.890;2023-02-02T00:27:01;8.60;;;1.53;;
60030;SDS011;45901;47.600;9.890;2023-02-02T00:29:29;5.83;;;1.80;;
60030;SDS011;45901;47.600;9.890;2023-02-02T00:31:57;8.53;;;1.60;;
60030;SDS011;45901;47.600;9.890;2023-02-02T00:34:27;7.50;;;1.60;;
60030;SDS011;45901;47.600;9.890;2023-02-02T00:36:54;9.37;;;1.80;;
60030;SDS011;45901;47.600;9.890;2023-02-02T00:39:25;7.97;;;1.70;;
60030;SDS011;45901;47.600;9.890;2023-02-02T00:41:58;7.13;;;1.50;;
60030;SDS011;45901;47.600;9.890;2023-02-02T00:44:27;9.07;;;1.70;;
60030;SDS011;45901;47.600;9.890;2023-02-02T00:47:13;7.30;;;1.53;;
60030;SDS011;45901;47.600;9.890;2023-02-02T00:49:40;7.67;;;1.83;;
60030;SDS011;45901;47.600;9.890;2023-02-02T00:52:09;7.37;;;1.60;;
60030;SDS011;45901;47.600;9.890;2023-02-02T00:54:37;8.57;;;1.57;;
60030;SDS011;45901;47.600;9.890;2023-02-02T00:57:05;8.00;;;1.67;;
60030;SDS011;45901;47.600;9.890;2023-02-02T00:59:33;5.07;;;1.53;;
60030;SDS011;45901;47.600;9.890;2023-02-02T01:02:01;8.07;;;1.97;;
60030;SDS011;45901;47.600;9.890;2023-02-02T01:04:29;5.27;;;1.77;;
60030;SDS011;45901;47.600;9.890;2023-02-02T01:06:57;9.13;;;1.60;;
60030;SDS011;45901;47.600;9.890;2023-02-02T01:09:24;4.37;;;1.63;;
60030;SDS011;45901;47.600;9.890;2023-02-02T01:11:53;5.20;;;1.70;;
60030;SDS011;45901;47.600;9.890;2023-02-02T01:14:20;10.77;;;2.00;;
60030;SDS011;45901;47.600;9.890;2023-02-02T01:16:48;9.30;;;1.97;;
60030;SDS011;45901;47.600;9.890;2023-02-02T01:19:15;12.17;;;2.00;;
60030;SDS011;45901;47.600;9.890;2023-02-02T01:21:42;6.67;;;1.67;;
60030;SDS011;45901;47.600;9.890;2023-02-02T01:24:10;11.13;;;1.70;;
60030;SDS011;45901;47.600;9.890;2023-02-02T01:26:37;8.80;;;2.17;;
60030;SDS011;45901;47.600;9.890;2023-02-02T01:29:05;6.70;;;2.40;;
60030;SDS011;45901;47.600;9.890;2023-02-02T01:31:32;6.13;;;1.53;;
60030;SDS011;45901;47.600;9.890;2023-02-02T01:34:00;7.33;;;1.70;;
60030;SDS011;45901;47.600;9.890;2023-02-02T01:36:27;4.83;;;1.67;;
60030;SDS011;45901;47.600;9.890;2023-02-02T01:38:55;9.07;;;1.50;;
60030;SDS011;45901;47.600;9.890;2023-02-02T01:41:25;8.03;;;1.47;;
60030;SDS011;45901;47.600;9.890;2023-02-02T01:43:57;10.80;;;1.73;;
60030;SDS011;45901;47.600;9.890;2023-02-02T01:46:28;9.43;;;1.63;;
60030;SDS011;45901;47.600;9.890;2023-02-02T01:49:02;10.60;;;2.13;;
60030;SDS011;45901;47.600;9.890;2023-02-02T01:51:58;9.57;;;2.20;;
60030;SDS011;45901;47.600;9.890;2023-02-02T01:55:01;7.33;;;1.70;;
60030;SDS011;45901;47.600;9.890;2023-02-02T01:57:34;7.53;;;1.90;;
60030;SDS011;45901;47.600;9.890;2023-02-02T02:00:07;5.47;;;1.73;;
60030;SDS011;45901;47.600;9.890;2023-02-02T02:02:41;5.43;;;1.50;;
60030;SDS011;45901;47.600;9.890;2023-02-02T02:05:12;10.60;;;1.97;;
60030;SDS011;45901;47.600;9.890;2023-02-02T02:20:52;4.97;;;1.30;;
60030;SDS011;45901;47.600;9.890;2023-02-02T02:24:16;5.27;;;1.57;;
60030;SDS011;45901;47.600;9.890;2023-02-02T02:27:59;9.43;;;1.40;;
60030;SDS011;45901;47.600;9.890;2023-02-02T02:31:17;4.63;;;1.63;;
60030;SDS011;45901;47.600;9.890;2023-02-02T02:34:15;11.80;;;2.27;;
60030;SDS011;45901;47.600;9.890;2023-02-02T02:36:48;7.70;;;1.40;;
60030;SDS011;45901;47.600;9.890;2023-02-02T02:39:24;10.50;;;1.87;;
60030;SDS011;45901;47.600;9.890;2023-02-02T02:41:59;9.53;;;1.50;;
60030;SDS011;45901;47.600;9.890;2023-02-02T02:44:38;8.13;;;1.70;;
60030;SDS011;45901;47.600;9.890;2023-02-02T02:47:08;10.57;;;2.43;;
60030;SDS011;45901;47.600;9.890;2023-02-02T02:49:40;6.10;;;1.17;;
60030;SDS011;45901;47.600;9.890;2023-02-02T02:52:08;8.43;;;1.53;;
60030;SDS011;45901;47.600;9.890;2023-02-02T02:54:36;10.53;;;1.53;;
60030;SDS011;45901;47.600;9.890;2023-02-02T02:57:14;7.47;;;1.40;;
60030;SDS011;45901;47.600;9.890;2023-02-02T03:00:07;8.83;;;2.23;;
60030;SDS011;45901;47.600;9.890;2023-02-02T03:03:00;8.77;;;1.77;;
60030;SDS011;45901;47.600;9.890;2023-02-02T03:05:37;11.77;;;1.73;;
60030;SDS011;45901;47.600;9.890;2023-02-02T03:08:14;9.57;;;1.40;;
60030;SDS011;45901;47.600;9.890;2023-02-02T03:10:47;4.47;;;1.63;;
60030;SDS011;45901;47.600;9.890;2023-02-02T03:13:15;6.67;;;1.20;;
60030;SDS011;45901;47.600;9.890;2023-02-02T03:15:43;8.30;;;1.57;;
60030;SDS011;45901;47.600;9.890;2023-02-02T03:18:13;5.37;;;1.67;;
60030;SDS011;45901;47.600;9.890;2023-02-02T03:20:42;6.03;;;1.30;;
60030;SDS011;45901;47.600;9.890;2023-02-02T03:23:11;10.43;;;2.00;;
60030;SDS011;45901;47.600;9.890;2023-02-02T03:25:38;10.33;;;2.33;;
60030;SDS011;45901;47.600;9.890;2023-02-02T03:28:06;8.83;;;1.43;;
60030;SDS011;45901;47.600;9.890;2023-02-02T03:30:34;13.13;;;2.23;;
60030;SDS011;45901;47.600;9.890;2023-02-02T03:33:02;8.20;;;1.77;;
60030;SDS011;45901;47.600;9.890;2023-02-02T03:35:32;8.03;;;2.00;;
60030;SDS011;45901;47.600;9.890;2023-02-02T03:37:59;13.13;;;1.93;;
60030;SDS011;45901;47.600;9.890;2023-02-02T03:40:26;7.23;;;2.47;;
60030;SDS011;45901;47.600;9.890;2023-02-02T03:42:54;8.47;;;1.50;;
60030;SDS011;45901;47.600;9.890;2023-02-02T03:45:21;14.30;;;1.57;;
60030;SDS011;45901;47.600;9.890;2023-02-02T03:47:48;11.87;;;1.60;;
60030;SDS011;45901;47.600;9.890;2023-02-02T03:50:16;10.77;;;1.57;;
60030;SDS011;45901;47.600;9.890;2023-02-02T03:52:44;8.57;;;1.73;;
60030;SDS011;45901;47.600;9.890;2023-02-02T03:55:12;6.90;;;1.50;;
60030;SDS011;45901;47.600;9.890;2023-02-02T03:57:39;13.97;;;2.10;;
60030;SDS011;45901;47.600;9.890;2023-02-02T04:00:06;10.27;;;1.87;;
60030;SDS011;45901;47.600;9.890;2023-02-02T04:02:36;7.97;;;1.50;;
60030;SDS011;45901;47.600;9.890;2023-02-02T04:05:04;13.07;;;1.83;;
60030;SDS011;45901;47.600;9.890;2023-02-02T04:07:32;10.50;;;2.10;;
60030;SDS011;45901;47.600;9.890;2023-02-02T04:10:00;9.60;;;1.50;;
60030;SDS011;45901;47.600;9.890;2023-02-02T04:12:27;5.47;;;1.43;;
60030;SDS011;45901;47.600;9.890;2023-02-02T04:14:54;9.53;;;1.73;;
60030;SDS011;45901;47.600;9.890;2023-02-02T04:17:22;10.47;;;2.00;;
60030;SDS011;45901;47.600;9.890;2023-02-02T04:19:49;6.70;;;1.60;;
60030;SDS011;45901;47.600;9.890;2023-02-02T04:22:21;8.70;;;1.90;;
60030;SDS011;45901;47.600;9.890;2023-02-02T04:24:48;9.57;;;2.00;;
60030;SDS011;45901;47.600;9.890;2023-02-02T04:27:16;12.60;;;2.30;;
60030;SDS011;45901;47.600;9.890;2023-02-02T04:29:43;9.13;;;1.97;;
60030;SDS011;45901;47.600;9.890;2023-02-02T04:32:10;5.97;;;1.67;;
60030;SDS011;45901;47.600;9.890;2023-02-02T04:34:39;5.47;;;1.77;;
60030;SDS011;45901;47.600;9.890;2023-02-02T04:37:07;7.77;;;1.87;;
60030;SDS011;45901;47.600;9.890;2023-02-02T04:39:34;10.00;;;2.10;;
60030;SDS011;45901;47.600;9.890;2023-02-02T04:42:01;7.60;;;2.57;;
60030;SDS011;45901;47.600;9.890;2023-02-02T04:44:30;5.63;;;1.50;;
60030;SDS011;45901;47.600;9.890;2023-02-02T04:46:57;9.13;;;1.90;;
60030;SDS011;45901;47.600;9.890;2023-02-02T04:49:25;9.07;;;1.87;;
60030;SDS011;45901;47.600;9.890;2023-02-02T04:51:52;8.07;;;2.43;;
60030;SDS011;45901;47.600;9.890;2023-02-02T04:54:19;5.30;;;1.80;;
60030;SDS011;45901;47.600;9.890;2023-02-02T04:56:46;9.43;;;1.80;;
60030;SDS011;45901;47.600;9.890;2023-02-02T04:59:13;7.47;;;1.80;;
60030;SDS011;45901;47.600;9.890;2023-02-02T05:01:42;7.30;;;1.70;;
60030;SDS011;45901;47.600;9.890;2023-02-02T05:04:10;7.20;;;1.70;;
60030;SDS011;45901;47.600;9.890;2023-02-02T05:06:37;11.83;;;2.17;;
60030;SDS011;45901;47.600;9.890;2023-02-02T05:09:04;6.60;;;1.80;;
60030;SDS011;45901;47.600;9.890;2023-02-02T05:11:31;8.60;;;2.03;;
60030;SDS011;45901;47.600;9.890;2023-02-02T05:13:58;6.07;;;1.40;;
60030;SDS011;45901;47.600;9.890;2023-02-02T05:16:26;11.17;;;2.10;;
60030;SDS011;45901;47.600;9.890;2023-02-02T05:18:55;8.47;;;1.83;;
60030;SDS011;45901;47.600;9.890;2023-02-02T05:21:23;6.97;;;2.13;;
60030;SDS011;45901;47.600;9.890;2023-02-02T05:23:50;9.10;;;1.90;;
60030;SDS011;45901;47.600;9.890;2023-02-02T05:26:18;11.37;;;1.90;;
60030;SDS011;45901;47.600;9.890;2023-02-02T05:28:48;7.27;;;2.00;;
60030;SDS011;45901;47.600;9.890;2023-02-02T05:31:16;7.60;;;1.87;;
60030;SDS011;45901;47.600;9.890;2023-02-02T05:33:43;9.10;;;1.63;;
60030;SDS011;45901;47.600;9.890;2023-02-02T05:36:12;6.23;;;1.80;;
60030;SDS011;45901;47.600;9.890;2023-02-02T05:38:40;11.80;;;1.90;;
60030;SDS011;45901;47.600;9.890;2023-02-02T05:41:07;9.47;;;2.20;;
60030;SDS011;45901;47.600;9.890;2023-02-02T05:43:34;4.57;;;1.53;;
60030;SDS011;45901;47.600;9.890;2023-02-02T05:46:02;7.20;;;1.70;;
60030;SDS011;45901;47.600;9.890;2023-02-02T05:48:30;6.77;;;2.00;;
60030;SDS011;45901;47.600;9.890;2023-02-02T05:50:58;6.83;;;1.80;;
60030;SDS011;45901;47.600;9.890;2023-02-02T05:53:32;8.37;;;2.40;;
60030;SDS011;45901;47.600;9.890;2023-02-02T05:55:59;7.20;;;1.97;;
60030;SDS011;45901;47.600;9.890;2023-02-02T05:58:26;6.70;;;1.83;;
60030;SDS011;45901;47.600;9.890;2023-02-02T06:00:53;9.10;;;2.10;;
60030;SDS011;45901;47.600;9.890;2023-02-02T06:03:21;5.10;;;1.53;;
60030;SDS011;45901;47.600;9.890;2023-02-02T06:05:48;7.27;;;1.53;;
60030;SDS011;45901;47.600;9.890;2023-02-02T06:08:16;8.43;;;2.13;;
60030;SDS011;45901;47.600;9.890;2023-02-02T06:10:44;5.67;;;1.73;;
60030;SDS011;45901;47.600;9.890;2023-02-02T06:13:11;8.57;;;2.10;;
60030;SDS011;45901;47.600;9.890;2023-02-02T06:15:39;8.23;;;2.27;;
60030;SDS011;45901;47.600;9.890;2023-02-02T06:18:07;6.60;;;1.83;;
60030;SDS011;45901;47.600;9.890;2023-02-02T06:20:34;9.37;;;1.70;;
60030;SDS011;45901;47.600;9.890;2023-02-02T06:23:02;14.83;;;2.33;;
60030;SDS011;45901;47.600;9.890;2023-02-02T06:25:29;8.70;;;2.17;;
60030;SDS011;45901;47.600;9.890;2023-02-02T06:27:59;11.13;;;2.10;;
60030;SDS011;45901;47.600;9.890;2023-02-02T06:30:26;7.73;;;2.10;;
60030;SDS011;45901;47.600;9.890;2023-02-02T06:32:54;7.17;;;1.90;;
60030;SDS011;45901;47.600;9.890;2023-02-02T06:35:24;13.20;;;1.70;;
60030;SDS011;45901;47.600;9.890;2023-02-02T06:37:51;6.63;;;1.70;;
60030;SDS011;45901;47.600;9.890;2023-02-02T06:40:18;5.03;;;1.30;;
60030;SDS011;45901;47.600;9.890;2023-02-02T06:42:45;7.67;;;2.73;;
60030;SDS011;45901;47.600;9.890;2023-02-02T06:45:14;10.80;;;2.10;;
60030;SDS011;45901;47.600;9.890;2023-02-02T06:47:41;12.17;;;1.93;;
60030;SDS011;45901;47.600;9.890;2023-02-02T06:50:09;11.57;;;2.13;;
60030;SDS011;45901;47.600;9.890;2023-02-02T06:52:37;6.60;;;1.70;;
60030;SDS011;45901;47.600;9.890;2023-02-02T06:55:04;8.60;;;2.10;;
60030;SDS011;45901;47.600;9.890;2023-02-02T06:57:32;10.40;;;2.03;;
60030;SDS011;45901;47.600;9.890;2023-02-02T06:59:59;7.27;;;1.70;;
60030;SDS011;45901;47.600;9.890;2023-02-02T07:02:28;10.43;;;1.67;;
60030;SDS011;45901;47.600;9.890;2023-02-02T07:04:55;4.60;;;1.50;;
60030;SDS011;45901;47.600;9.890;2023-02-02T07:07:22;8.33;;;1.53;;
60030;SDS011;45901;47.600;9.890;2023-02-02T07:09:50;7.87;;;1.40;;
60030;SDS011;45901;47.600;9.890;2023-02-02T07:12:17;6.27;;;1.87;;
60030;SDS011;45901;47.600;9.890;2023-02-02T07:14:44;6.10;;;1.43;;
60030;SDS011;45901;47.600;9.890;2023-02-02T07:17:11;11.10;;;1.70;;
60030;SDS011;45901;47.600;9.890;2023-02-02T07:19:40;8.10;;;2.33;;
60030;SDS011;45901;47.600;9.890;2023-02-02T07:22:07;5.30;;;1.60;;
60030;SDS011;45901;47.600;9.890;2023-02-02T07:24:34;8.73;;;1.60;;
60030;SDS011;45901;47.600;9.890;2023-02-02T07:27:02;7.07;;;1.53;;
60030;SDS011;45901;47.600;9.890;2023-02-02T07:29:30;5.07;;;1.30;;
60030;SDS011;45901;47.600;9.890;2023-02-02T07:31:57;4.53;;;1.70;;
60030;SDS011;45901;47.600;9.890;2023-02-02T07:34:24;9.10;;;1.83;;
60030;SDS011;45901;47.600;9.890;2023-02-02T07:36:53;6.40;;;1.80;;
60030;SDS011;45901;47.600;9.890;2023-02-02T07:39:20;4.73;;;1.43;;
60030;SDS011;45901;47.600;9.890;2023-02-02T07:41:48;9.43;;;1.93;;
60030;SDS011;45901;47.600;9.890;2023-02-02T07:44:15;7.20;;;1.60;;
60030;SDS011;45901;47.600;9.890;2023-02-02T07:46:43;11.17;;;2.40;;
60030;SDS011;45901;47.600;9.890;2023-02-02T07:49:12;8.27;;;2.20;;
60030;SDS011;45901;47.600;9.890;2023-02-02T07:51:41;7.77;;;2.33;;
60030;SDS011;45901;47.600;9.890;2023-02-02T07:54:10;8.30;;;2.13;;
60030;SDS011;45901;47.600;9.890;2023-02-02T07:56:37;10.77;;;2.40;;
60030;SDS011;45901;47.600;9.890;2023-02-02T07:59:04;7.03;;;1.80;;
60030;SDS011;45901;47.600;9.890;2023-02-02T08:01:32;8.87;;;1.57;;
60030;SDS011;45901;47.600;9.890;2023-02-02T08:03:59;7.67;;;1.40;;
60030;SDS011;45901;47.600;9.890;2023-02-02T08:06:28;9.93;;;2.00;;
60030;SDS011;45901;47.600;9.890;2023-02-02T08:08:57;7.23;;;1.50;;
60030;SDS011;45901;47.600;9.890;2023-02-02T08:11:27;6.77;;;1.50;;
60030;SDS011;45901;47.600;9.890;2023-02-02T08:13:55;6.47;;;1.83;;
60030;SDS011;45901;47.600;9.890;2023-02-02T08:16:25;9.17;;;1.80;;
60030;SDS011;45901;47.600;9.890;2023-02-02T08:18:55;7.73;;;1.50;;
60030;SDS011;45901;47.600;9.890;2023-02-02T08:21:23;6.73;;;1.63;;
60030;SDS011;45901;47.600;9.890;2023-02-02T08:23:55;8.83;;;1.97;;
60030;SDS011;45901;47.600;9.890;2023-02-02T08:26:39;6.63;;;1.53;;
60030;SDS011;45901;47.600;9.890;2023-02-02T08:29:12;9.83;;;2.00;;
60030;SDS011;45901;47.600;9.890;2023-02-02T08:31:50;9.60;;;2.23;;
60030;SDS011;45901;47.600;9.890;2023-02-02T08:34:26;12.33;;;1.90;;
60030;SDS011;45901;47.600;9.890;2023-02-02T08:37:25;7.10;;;1.70;;
60030;SDS011;45901;47.600;9.890;2023-02-02T08:39:57;5.73;;;1.40;;
60030;SDS011;45901;47.600;9.890;2023-02-02T08:42:32;8.73;;;1.73;;
60030;SDS011;45901;47.600;9.890;2023-02-02T08:45:13;8.27;;;1.67;;
60030;SDS011;45901;47.600;9.890;2023-02-02T08:47:46;6.83;;;1.50;;
60030;SDS011;45901;47.600;9.890;2023-02-02T08:50:31;6.70;;;1.63;;
60030;SDS011;45901;47.600;9.890;2023-02-02T08:53:06;5.30;;;1.90;;
60030;SDS011;45901;47.600;9.890;2023-02-02T08:55:34;7.03;;;1.70;;
60030;SDS011;45901;47.600;9.890;2023-02-02T08:58:25;7.53;;;2.20;;
60030;SDS011;45901;47.600;9.890;2023-02-02T09:04:03;5.83;;;1.97;;
60030;SDS011;45901;47.600;9.890;2023-02-02T09:06:46;10.53;;;1.63;;
60030;SDS011;45901;47.600;9.890;2023-02-02T09:09:32;9.63;;;1.90;;
60030;SDS011;45901;47.600;9.890;2023-02-02T09:12:00;7.63;;;1.70;;
60030;SDS011;45901;47.600;9.890;2023-02-02T09:14:28;6.63;;;2.30;;
60030;SDS011;45901;47.600;9.890;2023-02-02T09:16:56;5.20;;;1.83;;
60030;SDS011;45901;47.600;9.890;2023-02-02T09:19:23;11.70;;;2.10;;
60030;SDS011;45901;47.600;9.890;2023-02-02T09:21:50;8.80;;;2.00;;
60030;SDS011;45901;47.600;9.890;2023-02-02T09:24:18;8.97;;;2.27;;
60030;SDS011;45901;47.600;9.890;2023-02-02T09:26:45;9.60;;;2.30;;
60030;SDS011;45901;47.600;9.890;2023-02-02T09:29:15;7.63;;;1.80;;
60030;SDS011;45901;47.600;9.890;2023-02-02T09:31:51;4.97;;;1.83;;
60030;SDS011;45901;47.600;9.890;2023-02-02T09:34:23;7.77;;;2.27;;
60030;SDS011;45901;47.600;9.890;2023-02-02T09:36:54;6.57;;;1.80;;
60030;SDS011;45901;47.600;9.890;2023-02-02T09:39:21;6.07;;;1.83;;
60030;SDS011;45901;47.600;9.890;2023-02-02T09:45:12;6.77;;;1.80;;
60030;SDS011;45901;47.600;9.890;2023-02-02T09:47:53;8.73;;;2.00;;
60030;SDS011;45901;47.600;9.890;2023-02-02T09:53:18;10.77;;;2.63;;
60030;SDS011;45901;47.600;9.890;2023-02-02T09:55:52;10.43;;;3.23;;
60030;SDS011;45901;47.600;9.890;2023-02-02T09:58:27;13.70;;;3.43;;
60030;SDS011;45901;47.600;9.890;2023-02-02T10:01:00;10.70;;;1.87;;
60030;SDS011;45901;47.600;9.890;2023-02-02T10:07:15;6.43;;;1.67;;
60030;SDS011;45901;47.600;9.890;2023-02-02T10:09:49;14.10;;;1.90;;
60030;SDS011;45901;47.600;9.890;2023-02-02T10:12:27;8.80;;;1.57;;
60030;SDS011;45901;47.600;9.890;2023-02-02T10:19:31;9.43;;;1.60;;
60030;SDS011;45901;47.600;9.890;2023-02-02T10:22:02;8.10;;;1.90;;
60030;SDS011;45901;47.600;9.890;2023-02-02T10:24:38;9.03;;;2.07;;
60030;SDS011;45901;47.600;9.890;2023-02-02T10:27:07;11.47;;;2.17;;
60030;SDS011;45901;47.600;9.890;2023-02-02T10:29:43;8.93;;;1.93;;
60030;SDS011;45901;47.600;9.890;2023-02-02T10:32:20;8.03;;;1.97;;
60030;SDS011;45901;47.600;9.890;2023-02-02T10:35:04;7.03;;;2.07;;
60030;SDS011;45901;47.600;9.890;2023-02-02T10:37:55;9.20;;;1.67;;
60030;SDS011;45901;47.600;9.890;2023-02-02T10:40:35;15.17;;;2.33;;
60030;SDS011;45901;47.600;9.890;2023-02-02T10:46:26;5.90;;;1.87;;
60030;SDS011;45901;47.600;9.890;2023-02-02T10:49:07;6.13;;;1.60;;
60030;SDS011;45901;47.600;9.890;2023-02-02T10:51:44;10.07;;;1.90;;
60030;SDS011;45901;47.600;9.890;2023-02-02T10:54:28;6.87;;;1.70;;
60030;SDS011;45901;47.600;9.890;2023-02-02T10:57:27;6.03;;;2.03;;
60030;SDS011;45901;47.600;9.890;2023-02-02T11:00:14;9.00;;;2.43;;
60030;SDS011;45901;47.600;9.890;2023-02-02T11:02:47;11.37;;;1.80;;
60030;SDS011;45901;47.600;9.890;2023-02-02T11:05:17;7.50;;;2.30;;
60030;SDS011;45901;47.600;9.890;2023-02-02T11:08:12;3.17;;;1.60;;
60030;SDS011;45901;47.600;9.890;2023-02-02T11:10:41;11.50;;;1.90;;
60030;SDS011;45901;47.600;9.890;2023-02-02T11:13:13;9.13;;;2.17;;
60030;SDS011;45901;47.600;9.890;2023-02-02T11:15:49;9.23;;;2.20;;
60030;SDS011;45901;47.600;9.890;2023-02-02T11:18:37;6.27;;;1.70;;
60030;SDS011;45901;47.600;9.890;2023-02-02T11:21:07;5.43;;;1.70;;
60030;SDS011;45901;47.600;9.890;2023-02-02T11:23:55;5.23;;;1.53;;
60030;SDS011;45901;47.600;9.890;2023-02-02T11:26:26;5.87;;;1.67;;
60030;SDS011;45901;47.600;9.890;2023-02-02T11:29:13;9.00;;;1.40;;
60030;SDS011;45901;47.600;9.890;2023-02-02T11:31:45;9.70;;;1.80;;
60030;SDS011;45901;47.600;9.890;2023-02-02T11:34:17;7.80;;;1.60;;
60030;SDS011;45901;47.600;9.890;2023-02-02T11:36:56;6.77;;;2.60;;
60030;SDS011;45901;47.600;9.890;2023-02-02T11:39:26;10.80;;;2.13;;
60030;SDS011;45901;47.600;9.890;2023-02-02T11:41:59;9.50;;;2.00;;
60030;SDS011;45901;47.600;9.890;2023-02-02T11:44:30;3.93;;;1.70;;
60030;SDS011;45901;47.600;9.890;2023-02-02T11:47:00;6.17;;;1.53;;
60030;SDS011;45901;47.600;9.890;2023-02-02T11:49:30;10.70;;;2.27;;
60030;SDS011;45901;47.600;9.890;2023-02-02T11:52:05;6.90;;;2.03;;
60030;SDS011;45901;47.600;9.890;2023-02-02T11:54:45;10.50;;;1.93;;
60030;SDS011;45901;47.600;9.890;2023-02-02T11:57:16;7.80;;;2.10;;
60030;SDS011;45901;47.600;9.890;2023-02-02T11:59:47;5.90;;;1.77;;
60030;SDS011;45901;47.600;9.890;2023-02-02T12:02:23;8.40;;;1.90;;
60030;SDS011;45901;47.600;9.890;2023-02-02T12:04:54;6.00;;;1.47;;
60030;SDS011;45901;47.600;9.890;2023-02-02T12:07:38;4.23;;;1.70;;
60030;SDS011;45901;47.600;9.890;2023-02-02T12:10:12;9.83;;;1.90;;
60030;SDS011;45901;47.600;9.890;2023-02-02T12:12:49;9.27;;;2.53;;
60030;SDS011;45901;47.600;9.890;2023-02-02T12:15:28;6.83;;;2.47;;
60030;SDS011;45901;47.600;9.890;2023-02-02T12:18:12;5.53;;;1.80;;
60030;SDS011;45901;47.600;9.890;2023-02-02T12:21:03;4.60;;;1.37;;
60030;SDS011;45901;47.600;9.890;2023-02-02T12:23:35;5.27;;;1.80;;
60030;SDS011;45901;47.600;9.890;2023-02-02T12:26:24;5.67;;;2.20;;
60030;SDS011;45901;47.600;9.890;2023-02-02T12:32:03;6.23;;;1.60;;
60030;SDS011;45901;47.600;9.890;2023-02-02T12:34:48;8.07;;;2.10;;
60030;SDS011;45901;47.600;9.890;2023-02-02T12:37:26;7.73;;;1.63;;
60030;SDS011;45901;47.600;9.890;2023-02-02T12:40:14;9.40;;;2.47;;
60030;SDS011;45901;47.600;9.890;2023-02-02T12:43:02;4.03;;;1.70;;
60030;SDS011;45901;47.600;9.890;2023-02-02T12:45:46;12.40;;;1.87;;
60030;SDS011;45901;47.600;9.890;2023-02-02T12:49:11;4.87;;;1.80;;
60030;SDS011;45901;47.600;9.890;2023-02-02T12:51:55;6.00;;;1.60;;
60030;SDS011;45901;47.600;9.890;2023-02-02T12:54:53;8.53;;;2.43;;
60030;SDS011;45901;47.600;9.890;2023-02-02T12:57:52;9.97;;;1.67;;
60030;SDS011;45901;47.600;9.890;2023-02-02T13:00:38;3.90;;;1.10;;
60030;SDS011;45901;47.600;9.890;2023-02-02T13:03:40;4.77;;;1.47;;
60030;SDS011;45901;47.600;9.890;2023-02-02T13:06:41;4.53;;;1.70;;
60030;SDS011;45901;47.600;9.890;2023-02-02T13:09:50;5.23;;;1.73;;
60030;SDS011;45901;47.600;9.890;2023-02-02T13:12:31;1.73;;;1.27;;
60030;SDS011;45901;47.600;9.890;2023-02-02T13:15:05;4.97;;;1.27;;
60030;SDS011;45901;47.600;9.890;2023-02-02T13:17:38;4.87;;;1.70;;
60030;SDS011;45901;47.600;9.890;2023-02-02T13:20:14;5.57;;;1.17;;
60030;SDS011;45901;47.600;9.890;2023-02-02T13:22:50;4.97;;;1.10;;
60030;SDS011;45901;47.600;9.890;2023-02-02T13:25:23;3.10;;;1.33;;
60030;SDS011;45901;47.600;9.890;2023-02-02T13:27:54;5.47;;;1.87;;
60030;SDS011;45901;47.600;9.890;2023-02-02T13:30:26;6.90;;;1.90;;
60030;SDS011;45901;47.600;9.890;2023-02-02T13:33:00;8.47;;;2.10;;
60030;SDS011;45901;47.600;9.890;2023-02-02T13:35:33;5.07;;;1.50;;
60030;SDS011;45901;47.600;9.890;2023-02-02T13:38:11;7.17;;;2.60;;
60030;SDS011;45901;47.600;9.890;2023-02-02T13:40:46;6.20;;;1.90;;
60030;SDS011;45901;47.600;9.890;2023-02-02T13:43:19;6.27;;;2.57;;
60030;SDS011;45901;47.600;9.890;2023-02-02T13:46:00;5.23;;;1.77;;
60030;SDS011;45901;47.600;9.890;2023-02-02T13:48:38;5.57;;;1.33;;
60030;SDS011;45901;47.600;9.890;2023-02-02T14:00:51;4.73;;;1.40;;
60030;SDS011;45901;47.600;9.890;2023-02-02T14:03:26;9.47;;;1.60;;
60030;SDS011;45901;47.600;9.890;2023-02-02T14:06:04;7.00;;;1.80;;
60030;SDS011;45901;47.600;9.890;2023-02-02T14:08:42;7.30;;;1.70;;
60030;SDS011;45901;47.600;9.890;2023-02-02T14:11:19;8.27;;;1.50;;
60030;SDS011;45901;47.600;9.890;2023-02-02T14:13:51;10.77;;;2.00;;
60030;SDS011;45901;47.600;9.890;2023-02-02T14:22:19;4.23;;;1.30;;
60030;SDS011;45901;47.600;9.890;2023-02-02T14:31:25;3.73;;;1.63;;
60030;SDS011;45901;47.600;9.890;2023-02-02T14:40:02;3.37;;;1.50;;
60030;SDS011;45901;47.600;9.890;2023-02-02T14:43:05;9.20;;;2.67;;
60030;SDS011;45901;47.600;9.890;2023-02-02T14:49:06;7.97;;;2.57;;
60030;SDS011;45901;47.600;9.890;2023-02-02T14:51:53;8.93;;;2.00;;
60030;SDS011;45901;47.600;9.890;2023-02-02T14:57:19;7.93;;;2.97;;
60030;SDS011;45901;47.600;9.890;2023-02-02T14:59:52;12.97;;;3.80;;
60030;SDS011;45901;47.600;9.890;2023-02-02T15:02:24;12.03;;;4.57;;
60030;SDS011;45901;47.600;9.890;2023-02-02T15:08:20;7.70;;;2.67;;
60030;SDS011;45901;47.600;9.890;2023-02-02T15:10:57;4.30;;;1.40;;
60030;SDS011;45901;47.600;9.890;2023-02-02T15:13:53;8.27;;;2.43;;
60030;SDS011;45901;47.600;9.890;2023-02-02T15:16:39;7.83;;;1.80;;
60030;SDS011;45901;47.600;9.890;2023-02-02T15:19:23;4.93;;;2.00;;
60030;SDS011;45901;47.600;9.890;2023-02-02T15:22:11;5.87;;;2.13;;
60030;SDS011;45901;47.600;9.890;2023-02-02T15:25:16;6.17;;;2.27;;
60030;SDS011;45901;47.600;9.890;2023-02-02T15:27:59;5.87;;;2.40;;
60030;SDS011;45901;47.600;9.890;2023-02-02T15:30:36;11.90;;;3.33;;
60030;SDS011;45901;47.600;9.890;2023-02-02T15:33:17;5.33;;;2.37;;
60030;SDS011;45901;47.600;9.890;2023-02-02T15:35:57;8.80;;;2.60;;
60030;SDS011;45901;47.600;9.890;2023-02-02T15:38:31;6.60;;;1.93;;
60030;SDS011;45901;47.600;9.890;2023-02-02T15:41:04;4.10;;;1.93;;
60030;SDS011;45901;47.600;9.890;2023-02-02T15:43:33;4.00;;;2.00;;
60030;SDS011;45901;47.600;9.890;2023-02-02T15:46:01;4.47;;;2.00;;
60030;SDS011;45901;47.600;9.890;2023-02-02T15:48:32;9.73;;;2.40;;
60030;SDS011;45901;47.600;9.890;2023-02-02T15:51:03;5.57;;;2.37;;
60030;SDS011;45901;47.600;9.890;2023-02-02T15:53:33;9.93;;;4.30;;
60030;SDS011;45901;47.600;9.890;2023-02-02T15:56:17;6.43;;;2.47;;
60030;SDS011;45901;47.600;9.890;2023-02-02T15:58:54;7.00;;;2.10;;
60030;SDS011;45901;47.600;9.890;2023-02-02T16:01:24;6.03;;;3.00;;
60030;SDS011;45901;47.600;9.890;2023-02-02T16:03:57;7.10;;;3.73;;
60030;SDS011;45901;47.600;9.890;2023-02-02T16:06:41;8.97;;;3.27;;
60030;SDS011;45901;47.600;9.890;2023-02-02T16:09:13;9.17;;;2.97;;
60030;SDS011;45901;47.600;9.890;2023-02-02T16:11:49;10.10;;;3.50;;
60030;SDS011;45901;47.600;9.890;2023-02-02T16:14:17;10.10;;;4.10;;
60030;SDS011;45901;47.600;9.890;2023-02-02T16:16:45;7.83;;;3.00;;
60030;SDS011;45901;47.600;9.890;2023-02-02T16:19:14;11.13;;;4.67;;
60030;SDS011;45901;47.600;9.890;2023-02-02T16:21:51;9.73;;;3.30;;
60030;SDS011;45901;47.600;9.890;2023-02-02T16:24:23;9.97;;;4.47;;
60030;SDS011;45901;47.600;9.890;2023-02-02T16:26:56;10.17;;;3.20;;
60030;SDS011;45901;47.600;9.890;2023-02-02T16:29:26;9.10;;;3.07;;
60030;SDS011;45901;47.600;9.890;2023-02-02T16:31:54;6.10;;;3.10;;
60030;SDS011;45901;47.600;9.890;2023-02-02T16:37:16;20.27;;;5.70;;
60030;SDS011;45901;47.600;9.890;2023-02-02T16:39:49;14.33;;;5.40;;
60030;SDS011;45901;47.600;9.890;2023-02-02T16:42:22;15.73;;;6.57;;